Time;durP1;ratioP1;P1;durP2;ratioP2;P2;SDS_P1;SDS_P2;PMS_P1;PMS_P2;Temp;Humidity;BMP_temperature;BMP_pressure;BME280_temperature;BME280_humidity;BME280_pressure;Samples;Min_cycle;Max_cycle;Signal;HPM_P1;HPM_P2
2023/01/24 00:01:02;;;;;;;2.30;1.92;;;20.60;66.20;;;;;;5017629;28;20854;-84
2023/01/24 00:03:30;;;;;;;2.22;1.80;;;20.60;66.20;;;;;;5018787;28;20551;-85
2023/01/24 00:05:57;;;;;;;1.95;1.85;;;20.60;66.20;;;;;;5017844;28;20207;-85
2023/01/24 00:08:23;;;;;;;1.83;1.67;;;20.60;66.20;;;;;;5019816;28;20209;-83
2023/01/24 00:10:58;;;;;;;2.42;1.90;;;20.60;66.20;;;;;;5017244;28;20211;-83
2023/01/24 00:13:24;;;;;;;1.53;1.43;;;20.60;66.20;;;;;;5019358;28;20204;-86
2023/01/24 00:15:51;;;;;;;1.60;1.50;;;20.60;66.20;;;;;;5020068;28;20473;-82
2023/01/24 00:18:18;;;;;;;3.40;1.98;;;20.60;66.20;;;;;;5019630;28;20489;-81
2023/01/24 00:20:46;;;;;;;1.95;1.83;;;20.60;66.30;;;;;;5017415;28;20672;-85
2023/01/24 00:23:12;;;;;;;1.73;1.60;;;20.60;66.20;;;;;;5016682;28;20203;-85
2023/01/24 00:25:39;;;;;;;2.05;1.75;;;20.60;66.30;;;;;;5020609;28;20828;-84
2023/01/24 00:28:06;;;;;;;1.90;1.73;;;20.60;66.30;;;;;;5019076;28;20213;-84
2023/01/24 00:30:32;;;;;;;1.63;1.50;;;20.60;66.20;;;;;;5018708;28;20687;-85
2023/01/24 00:32:59;;;;;;;1.55;1.40;;;20.60;66.30;;;;;;5018196;28;20214;-85
2023/01/24 00:35:26;;;;;;;2.20;1.90;;;20.60;66.30;;;;;;5016360;28;20228;-84
2023/01/24 00:37:54;;;;;;;1.60;1.50;;;20.60;66.30;;;;;;5019292;28;20210;-84
2023/01/24 00:40:21;;;;;;;2.00;1.80;;;20.60;66.30;;;;;;5019056;28;20589;-85
2023/01/24 00:42:47;;;;;;;1.80;1.70;;;20.60;66.30;;;;;;5016274;28;20215;-84
2023/01/24 00:45:14;;;;;;;1.80;1.70;;;20.60;66.30;;;;;;5019881;28;20199;-85
2023/01/24 00:47:41;;;;;;;1.80;1.50;;;20.60;66.30;;;;;;5018051;28;20466;-83
2023/01/24 00:50:08;;;;;;;2.80;1.93;;;20.60;66.30;;;;;;5018862;28;20204;-85
2023/01/24 00:52:35;;;;;;;2.20;2.00;;;20.60;66.30;;;;;;5019474;28;20458;-84
2023/01/24 00:55:04;;;;;;;1.60;1.50;;;20.60;66.30;;;;;;5017812;28;20229;-83
2023/01/24 00:57:30;;;;;;;1.63;1.52;;;20.60;66.20;;;;;;5016958;28;20950;-87
2023/01/24 00:59:58;;;;;;;2.53;1.70;;;20.60;66.30;;;;;;5016974;28;20215;-88
2023/01/24 01:02:25;;;;;;;1.77;1.67;;;20.60;66.30;;;;;;5017116;28;20207;-84
2023/01/24 01:04:52;;;;;;;1.65;1.50;;;20.60;66.20;;;;;;5019659;28;20456;-84
2023/01/24 01:07:20;;;;;;;2.53;2.33;;;20.60;67.00;;;;;;5018601;28;20655;-84
2023/01/24 01:09:47;;;;;;;1.80;1.70;;;20.60;66.20;;;;;;5017607;28;20207;-84
2023/01/24 01:12:15;;;;;;;1.73;1.55;;;20.60;66.30;;;;;;5018369;28;20538;-84
2023/01/24 01:14:42;;;;;;;1.70;1.60;;;20.60;66.30;;;;;;5018677;28;20219;-84
2023/01/24 01:17:08;;;;;;;2.13;1.92;;;20.60;66.30;;;;;;5017596;28;20232;-85
2023/01/24 01:19:35;;;;;;;1.60;1.50;;;20.60;66.30;;;;;;5015707;28;20192;-84
2023/01/24 01:22:02;;;;;;;2.05;1.83;;;20.60;66.30;;;;;;5017901;28;21152;-84
2023/01/24 01:24:28;;;;;;;1.90;1.30;;;20.60;66.30;;;;;;5018981;28;20203;-84
2023/01/24 01:26:55;;;;;;;1.63;1.50;;;20.60;66.20;;;;;;5017792;28;20475;-84
2023/01/24 01:29:23;;;;;;;1.85;1.60;;;20.60;66.20;;;;;;5019273;28;20218;-85
2023/01/24 01:31:50;;;;;;;2.05;1.60;;;20.60;66.20;;;;;;5017636;28;20213;-85
2023/01/24 01:34:17;;;;;;;2.20;2.00;;;20.60;66.20;;;;;;5017163;28;20226;-85
2023/01/24 01:36:43;;;;;;;2.67;1.30;;;20.60;66.30;;;;;;5015579;28;20204;-87
2023/01/24 01:39:10;;;;;;;2.08;1.75;;;20.50;66.10;;;;;;5018440;28;20846;-84
2023/01/24 01:41:37;;;;;;;1.95;1.80;;;20.50;66.20;;;;;;5015361;28;20202;-85
2023/01/24 01:44:40;;;;;;;2.40;2.17;;;20.60;66.20;;;;;;5017960;28;20560;-84
2023/01/24 01:47:19;;;;;;;1.60;1.50;;;20.60;66.30;;;;;;5014710;28;20204;-86
2023/01/24 01:49:51;;;;;;;1.80;1.50;;;20.50;66.10;;;;;;5012708;28;20207;-85
2023/01/24 01:52:19;;;;;;;2.00;1.85;;;20.50;66.10;;;;;;5017530;28;20198;-85
2023/01/24 01:54:47;;;;;;;1.65;1.55;;;20.50;66.10;;;;;;5016524;28;20234;-86
2023/01/24 01:57:19;;;;;;;1.90;1.48;;;20.50;66.10;;;;;;5017396;28;20211;-86
2023/01/24 01:59:51;;;;;;;2.25;2.05;;;20.50;66.10;;;;;;5017328;28;20211;-86
2023/01/24 02:02:23;;;;;;;1.90;1.60;;;20.50;66.10;;;;;;5017366;28;20534;-86
2023/01/24 02:04:55;;;;;;;1.75;1.65;;;20.50;66.10;;;;;;5016761;28;20466;-87
2023/01/24 02:07:24;;;;;;;1.50;1.30;;;20.50;66.10;;;;;;5017740;28;20745;-86
2023/01/24 02:09:55;;;;;;;1.52;1.42;;;20.50;66.10;;;;;;5016385;28;20830;-85
2023/01/24 02:12:25;;;;;;;1.40;1.30;;;20.50;66.10;;;;;;5016195;28;20227;-86
2023/01/24 02:17:41;;;;;;;1.60;1.50;;;20.50;66.00;;;;;;5017654;28;20242;-85
2023/01/24 02:20:17;;;;;;;1.60;1.50;;;20.50;66.10;;;;;;5016798;28;20206;-86
2023/01/24 02:22:56;;;;;;;1.60;1.13;;;20.50;66.00;;;;;;5019092;28;20686;-86
2023/01/24 02:25:28;;;;;;;1.42;1.33;;;20.50;66.00;;;;;;5019941;28;20645;-85
2023/01/24 02:27:58;;;;;;;1.67;1.58;;;20.50;66.00;;;;;;5020850;28;20200;-86
2023/01/24 02:30:25;;;;;;;2.38;1.50;;;20.50;66.90;;;;;;5017531;28;21013;-86
2023/01/24 02:32:51;;;;;;;2.03;1.73;;;20.50;66.00;;;;;;5022453;28;20202;-85
2023/01/24 02:35:27;;;;;;;1.88;1.75;;;20.50;66.00;;;;;;5018667;28;20497;-84
2023/01/24 02:37:55;;;;;;;1.67;1.30;;;20.50;66.00;;;;;;5021249;28;20210;-84
2023/01/24 02:40:22;;;;;;;2.03;1.70;;;20.50;66.00;;;;;;5019292;28;20226;-85
2023/01/24 02:42:50;;;;;;;1.30;1.20;;;20.50;66.00;;;;;;5020440;28;20191;-85
2023/01/24 02:45:22;;;;;;;1.60;1.35;;;20.50;66.00;;;;;;5021023;28;20208;-85
2023/01/24 02:47:50;;;;;;;1.48;1.30;;;20.50;66.00;;;;;;5021727;28;20204;-86
2023/01/24 02:50:18;;;;;;;1.30;1.20;;;20.50;66.00;;;;;;5020127;28;20230;-87
2023/01/24 02:55:30;;;;;;;2.45;1.90;;;20.50;66.00;;;;;;5018381;28;20303;-87
2023/01/24 02:58:05;;;;;;;1.70;1.58;;;20.50;66.00;;;;;;5019250;28;20215;-85
2023/01/24 03:00:34;;;;;;;1.73;1.50;;;20.50;66.00;;;;;;5018438;28;20561;-84
2023/01/24 03:03:00;;;;;;;1.38;1.27;;;20.50;66.00;;;;;;5021787;28;20204;-85
2023/01/24 03:05:39;;;;;;;2.80;1.50;;;20.50;66.00;;;;;;5019606;28;20825;-85
2023/01/24 03:08:07;;;;;;;1.75;1.55;;;20.50;66.00;;;;;;5020033;28;20445;-85
2023/01/24 03:10:35;;;;;;;1.45;1.30;;;20.50;66.00;;;;;;5019732;28;20277;-85
2023/01/24 03:35:00;;;;;;;1.70;1.60;;;20.50;65.90;;;;;;5019019;28;20233;-85
2023/01/24 03:40:13;;;;;;;1.50;1.40;;;20.50;66.00;;;;;;5018760;28;20207;-87
2023/01/24 03:42:47;;;;;;;1.75;1.30;;;20.50;66.00;;;;;;5019598;28;20204;-86
2023/01/24 03:45:16;;;;;;;1.40;1.30;;;20.50;65.90;;;;;;5020223;28;20203;-86
2023/01/24 03:47:53;;;;;;;1.65;1.55;;;20.50;65.90;;;;;;5019447;28;20199;-85
2023/01/24 03:53:06;;;;;;;1.48;1.30;;;20.50;66.00;;;;;;5017732;28;20430;-85
2023/01/24 03:55:33;;;;;;;1.43;1.30;;;20.50;65.90;;;;;;5019750;28;20223;-85
2023/01/24 03:57:59;;;;;;;1.85;1.30;;;20.50;65.90;;;;;;5020193;28;20461;-85
2023/01/24 04:00:26;;;;;;;1.55;1.45;;;20.50;65.90;;;;;;5017987;28;20203;-85
2023/01/24 04:02:54;;;;;;;1.55;1.25;;;20.50;65.90;;;;;;5019830;28;20207;-85
2023/01/24 04:05:21;;;;;;;1.35;1.25;;;20.40;65.80;;;;;;5018071;28;20228;-85
2023/01/24 04:07:48;;;;;;;1.50;1.40;;;20.50;65.90;;;;;;5018077;28;20203;-86
2023/01/24 04:10:15;;;;;;;1.70;1.50;;;20.50;65.90;;;;;;5019445;28;20206;-85
2023/01/24 04:12:42;;;;;;;2.05;1.10;;;20.50;65.90;;;;;;5019671;28;20203;-85
2023/01/24 04:15:14;;;;;;;1.30;1.20;;;20.50;65.90;;;;;;5018533;28;20720;-86
2023/01/24 04:17:41;;;;;;;1.60;1.33;;;20.50;65.90;;;;;;5019317;28;20246;-85
2023/01/24 04:20:10;;;;;;;1.70;1.50;;;20.50;65.90;;;;;;5018563;28;20194;-86
2023/01/24 04:22:37;;;;;;;1.73;1.10;;;20.50;65.90;;;;;;5019673;28;20207;-85
2023/01/24 04:25:04;;;;;;;1.50;1.40;;;20.50;65.90;;;;;;5017975;28;20582;-86
2023/01/24 04:27:31;;;;;;;1.38;1.15;;;20.50;65.90;;;;;;5016114;28;20198;-84
2023/01/24 04:29:58;;;;;;;2.17;1.45;;;20.40;65.80;;;;;;5017989;28;20223;-84
2023/01/24 04:32:25;;;;;;;1.13;1.00;;;20.40;65.80;;;;;;5017308;28;20202;-86
2023/01/24 04:34:51;;;;;;;1.60;1.20;;;20.40;65.80;;;;;;5018366;28;20740;-85
2023/01/24 04:37:19;;;;;;;1.45;1.35;;;20.40;65.80;;;;;;5018679;28;20209;-84
2023/01/24 04:39:46;;;;;;;1.30;1.10;;;20.50;65.90;;;;;;5015936;28;20286;-86
2023/01/24 04:42:13;;;;;;;1.48;1.38;;;20.50;65.90;;;;;;5015611;28;20485;-83
2023/01/24 04:44:40;;;;;;;2.40;1.30;;;20.40;65.80;;;;;;5019077;28;20213;-85
2023/01/24 04:47:06;;;;;;;1.30;1.10;;;20.50;65.90;;;;;;5017974;28;20204;-84
2023/01/24 04:49:33;;;;;;;1.35;1.25;;;20.40;66.60;;;;;;5015566;28;20203;-85
2023/01/24 04:52:00;;;;;;;1.60;1.50;;;20.50;65.90;;;;;;5014682;28;20205;-84
2023/01/24 04:54:28;;;;;;;1.67;1.50;;;20.40;65.80;;;;;;5016670;28;20346;-85
2023/01/24 04:56:54;;;;;;;1.40;1.30;;;20.40;65.80;;;;;;5017738;28;20231;-85
2023/01/24 04:59:21;;;;;;;1.60;1.30;;;20.40;65.80;;;;;;5017623;28;20219;-85
2023/01/24 05:01:48;;;;;;;1.87;1.30;;;20.40;65.80;;;;;;5017537;28;20223;-86
2023/01/24 05:04:15;;;;;;;1.60;1.50;;;20.40;65.80;;;;;;5014271;28;20469;-85
2023/01/24 05:06:42;;;;;;;1.40;1.20;;;20.40;65.80;;;;;;5018435;28;20206;-85
2023/01/24 05:09:09;;;;;;;1.20;1.10;;;20.40;66.60;;;;;;5016414;28;20211;-85
2023/01/24 05:11:37;;;;;;;1.58;1.40;;;20.40;65.80;;;;;;5018179;28;20667;-85
2023/01/24 05:14:04;;;;;;;1.50;1.40;;;20.40;65.80;;;;;;5018792;28;20298;-86
2023/01/24 05:16:31;;;;;;;1.75;1.63;;;20.40;65.80;;;;;;5016495;28;20631;-85
2023/01/24 05:18:58;;;;;;;1.33;1.23;;;20.40;65.80;;;;;;5018569;28;20775;-86
2023/01/24 05:21:25;;;;;;;1.35;1.25;;;20.40;65.80;;;;;;5016654;28;20204;-86
2023/01/24 05:23:53;;;;;;;1.30;1.13;;;20.40;65.80;;;;;;5018174;28;20602;-86
2023/01/24 05:26:21;;;;;;;1.30;1.20;;;20.40;65.70;;;;;;5017901;28;20475;-86
2023/01/24 05:28:50;;;;;;;1.20;1.08;;;20.40;65.80;;;;;;5017003;28;22001;-86
2023/01/24 05:31:17;;;;;;;1.40;1.10;;;20.40;65.70;;;;;;5013715;28;20207;-86
2023/01/24 05:33:44;;;;;;;1.17;1.08;;;20.40;65.70;;;;;;5017878;28;20200;-86
2023/01/24 05:36:13;;;;;;;1.23;1.10;;;20.40;65.70;;;;;;5016354;28;20423;-86
2023/01/24 05:38:41;;;;;;;1.73;1.42;;;20.40;65.70;;;;;;5016431;28;20720;-86
2023/01/24 05:41:10;;;;;;;1.25;1.15;;;20.40;65.80;;;;;;5015734;28;20570;-86
2023/01/24 05:43:37;;;;;;;1.30;1.20;;;20.40;65.70;;;;;;5014306;28;20669;-86
2023/01/24 05:46:07;;;;;;;1.50;1.40;;;20.40;65.70;;;;;;5017149;28;20211;-85
2023/01/24 05:48:34;;;;;;;1.20;1.10;;;20.40;65.80;;;;;;5018233;28;20224;-86
2023/01/24 05:51:02;;;;;;;1.40;1.20;;;20.40;65.70;;;;;;5015083;28;20207;-86
2023/01/24 05:53:30;;;;;;;1.30;1.20;;;20.40;65.70;;;;;;5015696;28;20207;-86
2023/01/24 05:55:58;;;;;;;1.13;1.00;;;20.40;65.70;;;;;;5017846;28;20558;-85
2023/01/24 05:58:25;;;;;;;1.30;1.20;;;20.40;65.80;;;;;;5024187;28;20218;-87
2023/01/24 06:00:51;;;;;;;1.50;1.40;;;20.40;65.80;;;;;;5022620;28;20205;-85
2023/01/24 06:03:20;;;;;;;1.67;1.17;;;20.40;65.70;;;;;;5024852;28;20210;-86
2023/01/24 06:05:48;;;;;;;1.50;1.20;;;20.40;65.80;;;;;;5024992;28;20211;-86
2023/01/24 06:08:15;;;;;;;1.40;1.25;;;20.40;65.70;;;;;;5022689;28;20210;-86
2023/01/24 06:10:42;;;;;;;1.30;1.20;;;20.40;65.70;;;;;;5023129;28;20208;-84
2023/01/24 06:13:10;;;;;;;1.40;1.30;;;20.40;65.70;;;;;;5021517;28;20663;-84
2023/01/24 06:15:37;;;;;;;1.35;1.25;;;20.40;65.80;;;;;;5021979;28;20203;-84
2023/01/24 06:18:04;;;;;;;1.35;1.10;;;20.40;65.70;;;;;;5023753;28;20666;-85
2023/01/24 06:20:33;;;;;;;1.55;1.30;;;20.40;65.70;;;;;;5023744;28;20549;-86
2023/01/24 06:23:04;;;;;;;1.20;1.00;;;20.40;65.70;;;;;;5022545;28;20214;-85
2023/01/24 06:25:31;;;;;;;1.48;1.38;;;20.40;65.70;;;;;;5022211;28;20696;-85
2023/01/24 06:27:58;;;;;;;1.45;1.08;;;20.40;65.70;;;;;;5022962;28;20202;-86
2023/01/24 06:30:26;;;;;;;1.40;1.27;;;20.40;65.70;;;;;;5020660;28;20208;-85
2023/01/24 06:33:07;;;;;;;1.10;0.90;;;20.40;65.70;;;;;;5022922;28;20200;-84
2023/01/24 06:35:41;;;;;;;1.40;1.30;;;20.40;65.70;;;;;;5023461;28;20485;-84
2023/01/24 06:38:18;;;;;;;1.00;0.90;;;20.40;65.70;;;;;;5023057;28;20233;-84
2023/01/24 06:40:45;;;;;;;1.50;1.40;;;20.40;65.70;;;;;;5024412;28;20206;-86
2023/01/24 06:43:12;;;;;;;1.50;1.30;;;20.40;65.70;;;;;;5023303;28;20214;-86
2023/01/24 06:45:38;;;;;;;1.33;1.10;;;20.40;65.70;;;;;;5023652;28;20677;-85
2023/01/24 06:48:06;;;;;;;1.30;1.10;;;20.40;65.70;;;;;;5023550;28;20686;-85
2023/01/24 06:50:33;;;;;;;1.55;1.45;;;20.40;65.60;;;;;;5023167;28;20234;-85
2023/01/24 06:53:01;;;;;;;1.35;1.25;;;20.40;65.60;;;;;;5022152;28;20207;-85
2023/01/24 06:55:27;;;;;;;1.20;1.10;;;20.40;65.70;;;;;;5022230;28;20199;-83
2023/01/24 06:57:55;;;;;;;1.15;1.05;;;20.40;65.60;;;;;;5025199;28;20670;-83
2023/01/24 07:00:22;;;;;;;1.40;1.30;;;20.50;65.80;;;;;;5021645;28;20633;-83
2023/01/24 07:02:57;;;;;;;1.45;1.10;;;20.40;65.60;;;;;;5023707;28;20270;-83
2023/01/24 07:05:23;;;;;;;1.35;1.25;;;20.40;65.60;;;;;;5023312;28;20199;-83
2023/01/24 07:07:50;;;;;;;1.20;1.08;;;20.50;65.70;;;;;;5023073;28;20214;-84
2023/01/24 07:10:18;;;;;;;1.27;1.10;;;20.40;65.60;;;;;;5019168;28;20226;-84
2023/01/24 07:12:45;;;;;;;1.20;1.10;;;20.40;65.70;;;;;;5020218;28;20229;-84
2023/01/24 07:15:12;;;;;;;1.20;1.10;;;20.40;65.70;;;;;;5019846;28;20210;-84
2023/01/24 07:17:39;;;;;;;1.23;1.13;;;20.40;65.70;;;;;;5017396;28;20238;-83
2023/01/24 07:20:07;;;;;;;1.83;1.40;;;20.40;65.70;;;;;;5021060;28;20569;-84
2023/01/24 07:22:36;;;;;;;1.33;0.90;;;20.40;65.70;;;;;;5020367;28;20203;-83
2023/01/24 07:25:03;;;;;;;1.60;1.50;;;20.40;65.70;;;;;;5019328;28;20204;-83
2023/01/24 07:27:32;;;;;;;1.58;1.20;;;20.40;65.70;;;;;;5019324;28;20230;-84
2023/01/24 07:29:58;;;;;;;1.55;1.38;;;20.40;65.70;;;;;;5020172;28;20196;-84
2023/01/24 07:32:25;;;;;;;1.30;1.15;;;20.40;65.70;;;;;;5018658;28;20210;-84
2023/01/24 07:34:52;;;;;;;1.30;1.20;;;20.40;65.80;;;;;;5019900;28;20218;-83
2023/01/24 07:37:21;;;;;;;1.42;1.33;;;20.40;65.80;;;;;;5018859;28;20231;-83
2023/01/24 07:39:48;;;;;;;1.27;1.17;;;20.40;65.70;;;;;;5019811;28;20209;-82
2023/01/24 07:42:14;;;;;;;1.50;1.40;;;20.40;65.70;;;;;;5019679;28;20206;-83
2023/01/24 07:44:42;;;;;;;1.35;1.25;;;20.40;65.70;;;;;;5019046;28;20206;-84
2023/01/24 07:47:09;;;;;;;1.10;0.95;;;20.40;65.70;;;;;;5018100;28;20222;-84
2023/01/24 07:49:36;;;;;;;1.42;1.25;;;20.40;65.70;;;;;;5017428;28;20660;-85
2023/01/24 07:52:02;;;;;;;1.42;1.20;;;20.40;65.70;;;;;;5019149;28;20203;-82
2023/01/24 07:54:29;;;;;;;1.50;1.37;;;20.40;65.80;;;;;;5019037;28;20860;-82
2023/01/24 07:56:56;;;;;;;1.20;1.10;;;20.40;65.90;;;;;;5017034;28;20564;-83
2023/01/24 07:59:23;;;;;;;1.50;1.20;;;20.50;65.90;;;;;;5018135;28;20725;-82
2023/01/24 08:01:51;;;;;;;6.30;1.30;;;20.50;65.90;;;;;;5016438;28;20473;-83
2023/01/24 08:04:17;;;;;;;2.65;1.50;;;20.50;66.00;;;;;;5015350;28;20595;-83
2023/01/24 08:09:26;;;;;;;1.38;0.93;;;20.60;66.00;;;;;;5019164;28;20564;-82
2023/01/24 08:11:53;;;;;;;3.15;1.40;;;20.60;66.00;;;;;;5019434;28;20281;-82
2023/01/24 08:14:19;;;;;;;1.95;1.00;;;20.50;66.00;;;;;;5020279;28;20639;-81
2023/01/24 08:16:46;;;;;;;3.70;1.00;;;20.60;66.20;;;;;;5017818;28;20233;-83
2023/01/24 08:19:14;;;;;;;3.92;1.30;;;20.60;66.20;;;;;;5019051;28;20681;-81
2023/01/24 08:21:41;;;;;;;1.88;1.15;;;20.60;66.30;;;;;;5019956;28;20204;-81
2023/01/24 08:24:08;;;;;;;5.57;1.37;;;20.60;66.30;;;;;;5020294;28;20203;-80
2023/01/24 08:26:35;;;;;;;1.30;0.90;;;20.60;66.30;;;;;;5017647;28;20869;-80
2023/01/24 08:29:02;;;;;;;1.30;1.10;;;20.60;66.40;;;;;;5019270;28;20200;-82
2023/01/24 08:31:28;;;;;;;1.40;1.27;;;20.60;66.40;;;;;;5019458;28;20485;-82
2023/01/24 08:33:55;;;;;;;1.42;1.20;;;20.60;66.50;;;;;;5016297;28;20893;-82
2023/01/24 08:36:23;;;;;;;4.22;1.05;;;20.60;66.50;;;;;;5018691;28;20704;-82
2023/01/24 08:38:50;;;;;;;5.93;1.60;;;20.60;66.60;;;;;;5018267;28;20283;-83
2023/01/24 08:41:17;;;;;;;4.45;1.77;;;20.60;66.70;;;;;;5020510;28;20198;-84
2023/01/24 08:43:43;;;;;;;9.52;1.70;;;20.60;66.70;;;;;;5018632;28;20203;-81
2023/01/24 08:46:10;;;;;;;7.25;1.30;;;20.70;67.00;;;;;;5018727;28;20199;-80
2023/01/24 08:48:37;;;;;;;14.40;1.50;;;20.70;67.20;;;;;;5018141;28;20226;-82
2023/01/24 08:51:05;;;;;;;11.82;1.65;;;20.70;67.30;;;;;;5016419;28;20694;-82
2023/01/24 08:53:33;;;;;;;6.03;1.52;;;20.60;67.30;;;;;;5018064;28;20687;-82
2023/01/24 08:56:00;;;;;;;6.78;1.60;;;20.60;67.20;;;;;;5015969;28;20203;-82
2023/01/24 08:58:27;;;;;;;11.40;1.50;;;20.60;67.10;;;;;;5018881;28;20587;-84
2023/01/24 09:00:54;;;;;;;5.70;1.40;;;20.50;67.00;;;;;;5018119;28;20199;-83
2023/01/24 09:03:20;;;;;;;2.30;1.35;;;20.50;66.90;;;;;;5019218;28;20208;-83
2023/01/24 09:05:47;;;;;;;3.83;1.50;;;20.40;66.70;;;;;;5017054;28;20202;-86
2023/01/24 09:08:14;;;;;;;4.20;1.35;;;20.40;66.40;;;;;;5016774;28;20210;-84
2023/01/24 09:10:42;;;;;;;2.40;1.50;;;20.40;66.30;;;;;;5018335;28;20213;-84
2023/01/24 09:13:09;;;;;;;2.50;1.60;;;20.40;66.30;;;;;;5015904;28;20206;-82
2023/01/24 09:15:35;;;;;;;6.22;1.90;;;20.40;66.30;;;;;;5015779;28;20214;-83
2023/01/24 09:18:02;;;;;;;2.00;1.25;;;20.40;66.30;;;;;;5018873;28;20715;-83
2023/01/24 09:20:29;;;;;;;6.00;1.70;;;20.40;66.40;;;;;;5017490;28;20199;-83
2023/01/24 09:22:56;;;;;;;8.80;1.45;;;20.40;66.40;;;;;;5016051;28;20671;-84
2023/01/24 09:25:23;;;;;;;5.35;1.40;;;20.50;66.50;;;;;;5015206;28;20203;-83
2023/01/24 09:27:55;;;;;;;2.05;1.20;;;20.50;66.50;;;;;;5016923;28;20799;-83
2023/01/24 09:30:23;;;;;;;1.33;1.23;;;20.50;66.50;;;;;;5016711;28;20196;-83
2023/01/24 09:32:50;;;;;;;5.50;1.40;;;20.50;66.50;;;;;;5016882;28;20297;-82
2023/01/24 09:35:17;;;;;;;1.92;1.00;;;20.50;66.50;;;;;;5015662;28;20207;-83
2023/01/24 09:37:44;;;;;;;2.47;1.38;;;20.50;66.50;;;;;;5017213;28;20583;-83
2023/01/24 09:40:20;;;;;;;2.20;1.45;;;20.50;66.50;;;;;;5017922;28;20191;-84
2023/01/24 09:42:58;;;;;;;1.48;1.10;;;20.50;66.50;;;;;;5016681;28;20203;-85
2023/01/24 09:45:29;;;;;;;5.93;1.88;;;20.50;66.50;;;;;;5018242;28;20196;-85
2023/01/24 09:47:59;;;;;;;2.17;1.25;;;20.50;66.50;;;;;;5016435;28;20670;-85
2023/01/24 09:50:30;;;;;;;1.33;1.10;;;20.50;66.60;;;;;;5016697;28;20206;-86
2023/01/24 09:52:58;;;;;;;1.10;1.00;;;20.50;66.70;;;;;;5016328;28;20210;-84
2023/01/24 09:55:28;;;;;;;2.17;1.17;;;20.50;66.60;;;;;;5013989;28;20207;-84
2023/01/24 09:57:59;;;;;;;2.63;1.00;;;20.50;66.60;;;;;;5016217;28;20230;-85
2023/01/24 10:00:30;;;;;;;1.30;1.00;;;20.50;66.60;;;;;;5014822;28;20203;-85
2023/01/24 10:02:58;;;;;;;1.30;1.20;;;20.50;66.70;;;;;;5016147;28;20200;-83
2023/01/24 10:05:33;;;;;;;1.50;1.10;;;20.50;66.70;;;;;;5016685;28;20211;-84
2023/01/24 10:08:25;;;;;;;1.98;1.02;;;20.50;66.70;;;;;;5017337;28;20246;-82
2023/01/24 10:11:05;;;;;;;1.35;1.10;;;20.50;66.70;;;;;;5015554;28;20209;-86
2023/01/24 10:14:10;;;;;;;1.20;1.10;;;20.50;66.70;;;;;;5013840;28;20218;-83
2023/01/24 10:17:01;;;;;;;1.20;0.93;;;20.50;67.50;;;;;;5015892;28;20680;-85
2023/01/24 10:19:54;;;;;;;1.33;1.20;;;20.50;66.80;;;;;;5017310;28;20207;-84
2023/01/24 10:22:36;;;;;;;1.40;1.20;;;20.50;66.80;;;;;;5014368;28;20206;-82
2023/01/24 10:25:11;;;;;;;2.10;1.10;;;20.50;66.80;;;;;;5016069;28;20931;-81
2023/01/24 10:27:41;;;;;;;2.20;1.20;;;20.50;66.80;;;;;;5017857;28;20463;-82
2023/01/24 10:30:17;;;;;;;1.23;1.13;;;20.50;66.90;;;;;;5017703;28;20441;-83
2023/01/24 10:32:48;;;;;;;2.95;1.27;;;20.60;66.90;;;;;;5021244;28;20201;-83
2023/01/24 10:35:18;;;;;;;2.23;1.10;;;20.60;66.90;;;;;;5019162;28;20262;-83
2023/01/24 10:37:49;;;;;;;1.20;0.95;;;20.60;66.90;;;;;;5020868;28;20482;-82
2023/01/24 10:40:18;;;;;;;1.90;1.50;;;20.70;67.00;;;;;;5016126;28;20207;-83
2023/01/24 10:42:46;;;;;;;1.00;0.90;;;20.70;67.00;;;;;;5015737;28;20462;-82
2023/01/24 10:45:36;;;;;;;1.30;1.10;;;20.70;67.10;;;;;;5020226;28;20462;-82
2023/01/24 10:48:12;;;;;;;2.90;1.00;;;20.70;67.10;;;;;;5019621;28;20465;-83
2023/01/24 10:50:43;;;;;;;1.07;0.87;;;20.70;67.30;;;;;;5017711;28;20834;-82
2023/01/24 10:53:14;;;;;;;1.43;1.10;;;20.80;67.30;;;;;;5018863;28;20459;-82
2023/01/24 10:55:41;;;;;;;1.30;1.07;;;20.80;67.50;;;;;;5020276;28;20450;-83
2023/01/24 10:58:23;;;;;;;1.27;1.10;;;20.80;67.40;;;;;;5020589;28;20551;-82
2023/01/24 11:00:57;;;;;;;1.20;1.03;;;20.80;67.40;;;;;;5020603;28;20573;-82
2023/01/24 11:03:27;;;;;;;1.60;1.20;;;20.80;67.40;;;;;;5019978;28;20457;-82
2023/01/24 11:05:56;;;;;;;1.23;1.10;;;20.90;67.50;;;;;;5021227;28;20460;-83
2023/01/24 11:08:25;;;;;;;1.10;1.00;;;20.90;67.60;;;;;;5020662;28;20928;-84
2023/01/24 11:10:54;;;;;;;1.57;0.80;;;20.90;67.60;;;;;;5020676;28;20460;-83
2023/01/24 11:13:35;;;;;;;1.40;1.23;;;20.90;67.60;;;;;;5020395;28;20470;-83
2023/01/24 11:16:06;;;;;;;1.60;1.07;;;20.90;67.60;;;;;;5019193;28;20988;-82
2023/01/24 11:18:34;;;;;;;1.13;0.90;;;21.00;67.70;;;;;;5021083;28;20854;-81
2023/01/24 11:21:12;;;;;;;1.80;1.07;;;21.00;67.70;;;;;;5020901;28;20984;-83
2023/01/24 11:23:40;;;;;;;1.10;1.00;;;21.00;67.70;;;;;;5019538;28;20550;-83
2023/01/24 11:26:21;;;;;;;1.13;1.03;;;21.00;67.70;;;;;;5020665;28;20458;-83
2023/01/24 11:28:57;;;;;;;1.70;1.30;;;21.00;68.50;;;;;;5019609;28;20455;-81
2023/01/24 11:31:30;;;;;;;1.13;0.83;;;21.10;67.90;;;;;;5022064;28;20486;-83
2023/01/24 11:34:10;;;;;;;1.37;0.90;;;21.10;67.90;;;;;;5018740;28;20466;-82
2023/01/24 11:36:41;;;;;;;1.40;1.00;;;21.10;67.90;;;;;;5018611;28;20465;-84
2023/01/24 11:39:18;;;;;;;1.63;1.20;;;21.10;67.90;;;;;;5020286;28;20489;-83
2023/01/24 11:41:51;;;;;;;1.30;1.20;;;21.10;67.90;;;;;;5017711;28;20455;-82
2023/01/24 11:44:43;;;;;;;1.30;1.20;;;21.10;67.90;;;;;;5018836;28;20463;-82
2023/01/24 11:47:14;;;;;;;1.60;1.50;;;21.10;67.80;;;;;;5017896;28;20459;-82
2023/01/24 11:50:04;;;;;;;1.10;0.90;;;21.10;67.90;;;;;;5022058;28;20956;-84
2023/01/24 11:52:53;;;;;;;1.07;0.87;;;21.10;68.00;;;;;;5019500;28;20450;-83
2023/01/24 11:55:34;;;;;;;1.20;0.93;;;21.20;68.00;;;;;;5016097;28;20464;-84
2023/01/24 11:58:21;;;;;;;1.60;1.27;;;21.20;68.00;;;;;;5019036;28;20491;-85
2023/01/24 12:00:55;;;;;;;1.10;1.00;;;21.20;68.10;;;;;;5019204;28;20471;-85
2023/01/24 12:03:45;;;;;;;1.10;0.93;;;21.20;68.10;;;;;;5019893;28;20966;-81
2023/01/24 12:06:20;;;;;;;1.20;1.00;;;21.20;68.00;;;;;;5018658;28;20460;-79
2023/01/24 12:09:02;;;;;;;1.23;1.00;;;21.20;68.10;;;;;;5018517;28;20454;-80
2023/01/24 12:11:34;;;;;;;1.27;1.17;;;21.20;68.00;;;;;;5018185;28;20964;-81
2023/01/24 12:14:21;;;;;;;0.90;0.80;;;21.20;68.00;;;;;;5012716;28;20455;-81
2023/01/24 12:16:59;;;;;;;1.40;1.00;;;21.20;68.00;;;;;;5016049;28;20498;-81
2023/01/24 12:19:47;;;;;;;1.27;0.90;;;21.20;67.90;;;;;;5013664;28;20872;-80
2023/01/24 12:22:18;;;;;;;1.40;1.00;;;21.30;68.10;;;;;;5014511;28;20467;-82
2023/01/24 12:24:51;;;;;;;1.00;0.80;;;21.30;68.00;;;;;;5014851;28;20455;-81
2023/01/24 12:27:22;;;;;;;1.00;0.80;;;21.20;68.00;;;;;;5012892;28;20860;-80
2023/01/24 12:29:56;;;;;;;1.20;1.10;;;21.30;68.00;;;;;;5012483;28;20466;-82
2023/01/24 12:32:31;;;;;;;1.20;0.80;;;21.30;68.00;;;;;;5016044;28;20829;-81
2023/01/24 12:35:11;;;;;;;1.10;0.90;;;21.30;68.00;;;;;;5032996;28;20838;-80
2023/01/24 12:37:45;;;;;;;1.20;0.90;;;21.30;68.00;;;;;;5026700;28;20474;-80
2023/01/24 12:40:21;;;;;;;1.00;0.90;;;21.30;68.00;;;;;;5025123;28;20458;-82
2023/01/24 12:42:55;;;;;;;1.30;0.90;;;21.30;68.00;;;;;;5019965;28;20463;-82
2023/01/24 12:45:27;;;;;;;1.00;0.90;;;21.30;68.00;;;;;;5019680;28;20467;-81
2023/01/24 12:48:00;;;;;;;1.00;0.90;;;21.30;68.00;;;;;;5016098;28;21037;-82
2023/01/24 12:50:40;;;;;;;1.17;1.07;;;21.40;68.10;;;;;;5018852;28;20968;-82
2023/01/24 12:53:13;;;;;;;1.03;0.87;;;21.40;68.10;;;;;;5015446;28;20459;-80
2023/01/24 12:55:57;;;;;;;1.20;1.00;;;21.40;68.10;;;;;;5021193;28;20978;-81
2023/01/24 12:58:29;;;;;;;1.20;1.10;;;21.40;68.10;;;;;;5026307;28;20470;-81
2023/01/24 13:01:09;;;;;;;1.00;0.80;;;21.40;68.00;;;;;;5019682;28;20458;-80
2023/01/24 13:04:02;;;;;;;1.20;1.00;;;21.40;68.00;;;;;;5013619;28;20942;-81
2023/01/24 13:06:40;;;;;;;1.37;1.20;;;21.30;67.40;;;;;;5013605;28;20922;-81
2023/01/24 13:09:17;;;;;;;1.10;0.90;;;21.30;67.10;;;;;;5011774;28;21003;-82
2023/01/24 13:11:47;;;;;;;1.00;0.80;;;21.40;67.40;;;;;;5020020;28;20485;-80
2023/01/24 13:14:20;;;;;;;1.80;1.00;;;21.40;67.50;;;;;;5013424;28;20544;-80
2023/01/24 13:17:20;;;;;;;1.30;1.00;;;21.40;67.50;;;;;;5021616;28;20493;-82
2023/01/24 13:20:02;;;;;;;2.20;1.13;;;21.40;67.50;;;;;;5014991;28;20902;-80
2023/01/24 13:22:54;;;;;;;1.50;1.00;;;21.40;67.60;;;;;;5013477;28;20471;-84
2023/01/24 13:25:36;;;;;;;1.10;0.90;;;21.40;67.60;;;;;;5011079;28;20559;-84
2023/01/24 13:28:12;;;;;;;1.30;0.90;;;21.40;67.60;;;;;;5009842;28;20457;-80
2023/01/24 13:30:46;;;;;;;1.03;0.80;;;21.50;67.70;;;;;;5010685;28;20825;-81
2023/01/24 13:33:18;;;;;;;2.13;1.00;;;21.50;67.70;;;;;;5009002;28;20474;-80
2023/01/24 13:35:50;;;;;;;1.20;1.00;;;21.50;67.70;;;;;;5010941;28;20455;-80
2023/01/24 13:38:23;;;;;;;1.30;1.10;;;21.50;67.70;;;;;;5010221;28;20489;-84